createdAt,value
2023-06-27T00:02:24.046Z,9.80
2023-06-27T00:04:51.204Z,10.07
2023-06-27T00:07:19.724Z,11.80
2023-06-27T00:09:46.970Z,9.43
2023-06-27T00:12:14.119Z,11.93
2023-06-27T00:14:41.246Z,8.38
2023-06-27T00:17:08.407Z,11.32
2023-06-27T00:19:35.541Z,9.98
2023-06-27T00:22:03.574Z,8.07
2023-06-27T00:24:33.827Z,11.95
2023-06-27T00:27:00.937Z,9.60
2023-06-27T00:29:28.062Z,9.93
2023-06-27T00:31:55.939Z,10.60
2023-06-27T00:34:23.182Z,8.00
2023-06-27T00:36:50.337Z,10.00
2023-06-27T00:39:17.474Z,9.93
2023-06-27T00:41:45.940Z,7.35
2023-06-27T00:44:13.053Z,9.65
2023-06-27T00:46:42.062Z,7.63
2023-06-27T00:49:11.810Z,9.73
2023-06-27T00:51:40.300Z,8.25
2023-06-27T00:54:08.630Z,8.88
2023-06-27T00:56:36.383Z,7.30
2023-06-27T00:59:06.305Z,7.40
2023-06-27T01:01:33.670Z,7.68
2023-06-27T01:04:00.976Z,7.65
2023-06-27T01:06:34.926Z,7.43
2023-06-27T01:09:06.351Z,7.47
2023-06-27T01:11:40.816Z,7.40
2023-06-27T01:14:11.189Z,7.05
2023-06-27T01:16:39.875Z,7.20
2023-06-27T01:19:09.208Z,5.75
2023-06-27T01:21:37.922Z,6.75
2023-06-27T01:24:07.481Z,6.78
2023-06-27T01:26:35.152Z,8.68
2023-06-27T01:29:02.399Z,8.38
2023-06-27T01:31:36.017Z,7.13
2023-06-27T01:36:37.967Z,6.38
2023-06-27T01:39:08.889Z,7.22
2023-06-27T01:41:38.376Z,7.70
2023-06-27T01:44:08.017Z,7.53
2023-06-27T01:46:36.760Z,6.85
2023-06-27T01:49:04.869Z,5.80
2023-06-27T01:51:32.259Z,7.30
2023-06-27T01:53:59.742Z,6.03
2023-06-27T01:56:28.290Z,7.18
2023-06-27T01:58:55.447Z,6.25
2023-06-27T02:01:22.799Z,5.60
2023-06-27T02:03:50.394Z,7.00
2023-06-27T02:06:17.621Z,6.45
2023-06-27T02:08:44.870Z,6.00
2023-06-27T02:11:12.027Z,5.80
2023-06-27T02:13:40.499Z,6.00
2023-06-27T02:16:07.636Z,6.95
2023-06-27T02:18:34.768Z,6.78
2023-06-27T02:21:01.895Z,6.97
2023-06-27T02:23:29.014Z,5.38
2023-06-27T02:25:56.203Z,7.28
2023-06-27T02:28:23.312Z,5.82
2023-06-27T02:30:51.909Z,5.57
2023-06-27T02:33:19.065Z,5.20
2023-06-27T02:35:46.165Z,4.22
2023-06-27T02:38:13.286Z,6.00
2023-06-27T02:40:40.443Z,5.72
2023-06-27T02:43:07.591Z,5.38
2023-06-27T02:45:34.703Z,6.60
2023-06-27T02:48:03.412Z,6.72
2023-06-27T02:50:30.616Z,4.93
2023-06-27T02:52:57.770Z,6.40
2023-06-27T02:55:24.900Z,5.68
2023-06-27T02:57:52.043Z,5.53
2023-06-27T03:00:19.574Z,4.78
2023-06-27T03:02:46.831Z,7.13
2023-06-27T03:05:15.468Z,5.10
2023-06-27T03:07:42.621Z,5.18
2023-06-27T03:10:10.731Z,5.90
2023-06-27T03:12:37.965Z,4.97
2023-06-27T03:15:06.056Z,5.63
2023-06-27T03:17:33.713Z,6.07
2023-06-27T03:20:00.893Z,4.20
2023-06-27T03:22:29.350Z,4.05
2023-06-27T03:24:56.501Z,5.07
2023-06-27T03:27:24.060Z,4.57
2023-06-27T03:29:51.225Z,4.85
2023-06-27T03:32:18.423Z,5.30
2023-06-27T03:34:45.585Z,4.47
2023-06-27T03:37:12.719Z,4.88
2023-06-27T03:39:41.244Z,4.70
2023-06-27T03:42:08.495Z,4.53
2023-06-27T03:44:35.798Z,4.22
2023-06-27T03:47:03.239Z,4.35
2023-06-27T03:49:30.388Z,4.45
2023-06-27T03:51:57.557Z,4.63
2023-06-27T03:54:24.880Z,5.25
2023-06-27T03:56:53.698Z,4.32
2023-06-27T03:59:20.850Z,4.82
2023-06-27T04:01:48.012Z,4.22
2023-06-27T04:04:15.504Z,5.90
2023-06-27T04:06:42.866Z,5.20
2023-06-27T04:09:10.048Z,4.90
2023-06-27T04:11:37.224Z,3.22
2023-06-27T04:14:05.737Z,6.68
2023-06-27T04:16:32.953Z,2.90
2023-06-27T04:19:00.200Z,2.38
2023-06-27T04:21:27.457Z,3.55
2023-06-27T04:23:54.624Z,2.03
2023-06-27T04:26:21.797Z,4.97
2023-06-27T04:28:48.913Z,1.42
2023-06-27T04:31:17.529Z,3.58
2023-06-27T04:33:44.711Z,2.20
2023-06-27T04:36:12.098Z,2.50
2023-06-27T04:38:39.578Z,2.47
2023-06-27T04:41:07.471Z,2.65
2023-06-27T04:43:37.097Z,1.35
2023-06-27T04:46:04.932Z,3.05
2023-06-27T04:48:33.711Z,1.83
2023-06-27T04:51:03.620Z,1.40
2023-06-27T04:53:31.540Z,1.95
2023-06-27T04:55:58.997Z,1.70
2023-06-27T04:58:26.158Z,1.55
2023-06-27T05:00:53.577Z,1.75
2023-06-27T05:03:20.880Z,2.72
2023-06-27T05:05:49.609Z,2.90
2023-06-27T05:08:16.754Z,2.42
2023-06-27T05:10:44.005Z,1.83
2023-06-27T05:13:12.834Z,3.38
2023-06-27T05:15:40.527Z,1.67
2023-06-27T05:18:23.733Z,3.40
2023-06-27T05:20:52.648Z,1.77
2023-06-27T05:23:19.787Z,2.47
2023-06-27T05:25:46.915Z,2.17
2023-06-27T05:28:14.397Z,5.22
2023-06-27T05:30:41.738Z,4.47
2023-06-27T05:33:08.980Z,3.38
2023-06-27T05:35:36.215Z,2.25
2023-06-27T05:38:05.634Z,4.70
2023-06-27T05:40:33.103Z,2.13
2023-06-27T05:43:00.325Z,2.88
2023-06-27T05:45:27.482Z,2.83
2023-06-27T05:47:54.676Z,1.52
2023-06-27T05:50:21.907Z,3.15
2023-06-27T05:52:49.143Z,2.05
2023-06-27T05:55:17.776Z,2.38
2023-06-27T05:57:44.976Z,2.90
2023-06-27T06:00:13.050Z,1.50
2023-06-27T06:02:42.739Z,1.83
2023-06-27T06:05:10.806Z,1.70
2023-06-27T06:07:41.055Z,2.45
2023-06-27T06:10:09.126Z,2.70
2023-06-27T06:12:37.800Z,2.40
2023-06-27T06:15:06.083Z,2.08
2023-06-27T06:17:33.271Z,1.70
2023-06-27T06:20:00.705Z,3.22
2023-06-27T06:22:27.861Z,4.43
2023-06-27T06:24:54.989Z,2.10
2023-06-27T06:27:22.345Z,3.22
2023-06-27T06:29:50.887Z,1.45
2023-06-27T06:32:18.115Z,2.90
2023-06-27T06:34:45.340Z,1.88
2023-06-27T06:37:12.518Z,2.17
2023-06-27T06:39:39.655Z,2.35
2023-06-27T06:42:07.078Z,1.92
2023-06-27T06:44:34.215Z,2.60
2023-06-27T06:47:02.779Z,1.77
2023-06-27T06:49:30.444Z,2.13
2023-06-27T06:51:57.566Z,1.38
2023-06-27T06:54:24.699Z,2.55
2023-06-27T06:56:51.852Z,2.38
2023-06-27T06:59:19.052Z,2.92
2023-06-27T07:01:46.289Z,2.35
2023-06-27T07:04:14.926Z,2.38
2023-06-27T07:06:42.144Z,3.03
2023-06-27T07:09:09.329Z,4.20
2023-06-27T07:11:36.530Z,2.28
2023-06-27T07:14:03.709Z,11.52
2023-06-27T07:16:30.866Z,2.95
2023-06-27T07:18:58.049Z,2.65
2023-06-27T07:21:26.538Z,2.85
2023-06-27T07:23:53.883Z,2.25
2023-06-27T07:26:21.240Z,4.28
2023-06-27T07:28:48.412Z,1.73
2023-06-27T07:31:15.625Z,2.53
2023-06-27T07:33:42.968Z,3.60
2023-06-27T07:36:10.105Z,2.45
2023-06-27T07:38:38.605Z,1.48
2023-06-27T07:41:05.902Z,1.52
2023-06-27T07:43:33.070Z,2.35
2023-06-27T07:46:00.244Z,1.40
2023-06-27T07:48:27.385Z,2.58
2023-06-27T07:50:54.523Z,1.77
2023-06-27T07:53:21.669Z,1.95
2023-06-27T07:55:50.199Z,3.20
2023-06-27T07:58:17.328Z,2.17
2023-06-27T08:00:44.486Z,1.85
2023-06-27T08:03:11.723Z,2.20
2023-06-27T08:05:39.031Z,4.05
2023-06-27T08:08:06.244Z,3.30
2023-06-27T08:10:33.438Z,2.95
2023-06-27T08:13:01.909Z,2.70
2023-06-27T08:15:29.186Z,3.97
2023-06-27T08:17:56.439Z,2.92
2023-06-27T08:20:23.637Z,2.83
2023-06-27T08:22:50.774Z,1.73
2023-06-27T08:25:18.116Z,2.05
2023-06-27T08:27:45.285Z,1.20
2023-06-27T08:30:14.043Z,2.72
2023-06-27T08:32:41.304Z,2.08
2023-06-27T08:35:08.784Z,2.67
2023-06-27T08:37:35.952Z,2.42
2023-06-27T08:40:03.649Z,1.50
2023-06-27T08:42:31.340Z,2.28
2023-06-27T08:44:58.763Z,1.75
2023-06-27T08:47:30.125Z,2.70
2023-06-27T08:50:02.663Z,2.58
2023-06-27T08:52:33.250Z,1.65
2023-06-27T08:55:04.358Z,1.42
2023-06-27T08:57:33.128Z,1.88
2023-06-27T09:00:03.492Z,2.00
2023-06-27T09:02:33.692Z,2.53
2023-06-27T09:05:01.507Z,2.72
2023-06-27T09:07:29.236Z,2.33
2023-06-27T09:09:56.719Z,3.42
2023-06-27T09:12:25.306Z,2.15
2023-06-27T09:14:52.584Z,2.05
2023-06-27T09:17:20.412Z,2.70
2023-06-27T09:19:48.975Z,1.83
2023-06-27T09:22:16.645Z,3.45
2023-06-27T09:24:43.825Z,5.07
2023-06-27T09:27:29.120Z,2.72
2023-06-27T09:29:56.380Z,1.65
2023-06-27T09:32:23.567Z,1.75
2023-06-27T09:34:52.175Z,1.88
2023-06-27T09:39:51.119Z,1.98
2023-06-27T09:42:18.237Z,2.50
2023-06-27T09:44:45.484Z,6.15
2023-06-27T09:47:12.668Z,3.17
2023-06-27T09:49:41.150Z,2.45
2023-06-27T09:52:10.931Z,2.17
2023-06-27T09:54:42.289Z,2.58
2023-06-27T09:57:13.756Z,3.72
2023-06-27T09:59:40.926Z,2.38
2023-06-27T10:02:13.113Z,3.58
2023-06-27T10:04:40.924Z,1.90
2023-06-27T10:07:08.499Z,2.17
2023-06-27T10:09:38.674Z,2.95
2023-06-27T10:12:07.402Z,2.17
2023-06-27T10:14:34.890Z,1.80
2023-06-27T10:17:02.685Z,2.15
2023-06-27T10:19:32.621Z,1.35
2023-06-27T10:22:01.538Z,2.15
2023-06-27T10:24:29.933Z,1.63
2023-06-27T10:27:01.043Z,2.00
2023-06-27T10:29:32.124Z,3.03
2023-06-27T10:31:59.495Z,1.83
2023-06-27T10:34:26.823Z,1.08
2023-06-27T10:37:01.006Z,1.23
2023-06-27T10:39:29.571Z,2.33
2023-06-27T10:42:12.430Z,4.82
2023-06-27T10:45:01.399Z,4.07
2023-06-27T10:47:33.910Z,2.92
2023-06-27T10:52:31.936Z,2.95
2023-06-27T10:55:18.938Z,6.50
2023-06-27T10:57:50.284Z,2.35
2023-06-27T11:00:24.654Z,3.05
2023-06-27T11:02:52.181Z,3.30
2023-06-27T11:05:20.297Z,2.35
2023-06-27T11:07:54.639Z,2.38
2023-06-27T11:10:26.790Z,2.13
2023-06-27T11:13:13.926Z,3.13
2023-06-27T11:15:42.158Z,2.75
2023-06-27T11:18:10.126Z,4.00
2023-06-27T11:20:37.507Z,1.88
2023-06-27T11:23:04.684Z,1.80
2023-06-27T11:25:36.488Z,3.13
2023-06-27T11:28:04.063Z,3.45
2023-06-27T11:30:32.662Z,3.00
2023-06-27T11:33:00.301Z,2.08
2023-06-27T11:35:27.804Z,1.88
2023-06-27T11:37:55.198Z,2.65
2023-06-27T11:40:22.484Z,1.90
2023-06-27T11:42:49.842Z,2.30
2023-06-27T11:45:17.034Z,2.08
2023-06-27T11:47:46.317Z,2.17
2023-06-27T11:50:14.173Z,1.73
2023-06-27T11:52:41.310Z,2.42
2023-06-27T11:55:08.993Z,2.17
2023-06-27T11:57:46.137Z,1.40
2023-06-27T12:00:27.442Z,2.97
2023-06-27T12:02:57.978Z,1.17
2023-06-27T12:05:26.071Z,1.83
2023-06-27T12:08:01.207Z,2.55
2023-06-27T12:10:28.995Z,4.15
2023-06-27T12:12:56.143Z,1.65
2023-06-27T12:15:23.465Z,2.10
2023-06-27T12:17:59.741Z,3.08
2023-06-27T12:20:40.119Z,4.63
2023-06-27T12:23:07.528Z,2.70
2023-06-27T12:25:34.749Z,2.13
2023-06-27T12:28:02.592Z,4.13
2023-06-27T12:30:29.759Z,3.53
2023-06-27T12:32:58.390Z,2.88
2023-06-27T12:35:25.640Z,2.28
2023-06-27T12:37:53.045Z,3.80
2023-06-27T12:40:20.363Z,3.28
2023-06-27T12:42:47.528Z,4.22
2023-06-27T12:45:14.801Z,3.30
2023-06-27T12:47:41.979Z,3.10
2023-06-27T12:50:11.906Z,2.28
2023-06-27T12:52:39.044Z,2.63
2023-06-27T12:55:07.709Z,2.88
2023-06-27T12:57:35.020Z,3.25
2023-06-27T13:00:02.175Z,1.85
2023-06-27T13:02:29.418Z,1.92
2023-06-27T13:04:57.335Z,1.52
2023-06-27T13:07:25.919Z,1.85
2023-06-27T13:09:53.123Z,2.50
2023-06-27T13:12:20.354Z,2.00
2023-06-27T13:14:47.482Z,2.20
2023-06-27T13:17:14.796Z,2.90
2023-06-27T13:19:42.136Z,2.13
2023-06-27T13:22:09.334Z,2.88
2023-06-27T13:24:38.035Z,2.35
2023-06-27T13:27:05.598Z,2.50
2023-06-27T13:29:32.760Z,2.10
2023-06-27T13:32:00.028Z,1.92
2023-06-27T13:34:27.259Z,2.75
2023-06-27T13:36:54.425Z,2.50
2023-06-27T13:39:21.545Z,2.03
2023-06-27T13:41:50.085Z,2.35
2023-06-27T13:44:17.221Z,2.25
2023-06-27T13:46:44.386Z,2.58
2023-06-27T13:49:11.620Z,3.25
2023-06-27T13:51:38.936Z,2.63
2023-06-27T13:54:06.131Z,1.67
2023-06-27T13:56:35.416Z,1.90
2023-06-27T13:59:05.558Z,2.03
2023-06-27T14:01:32.741Z,1.50
2023-06-27T14:04:00.065Z,1.48
2023-06-27T14:06:27.398Z,3.47
2023-06-27T14:08:54.564Z,2.88
2023-06-27T14:11:21.967Z,4.30
2023-06-27T14:13:49.518Z,2.72
2023-06-27T14:16:18.652Z,3.25
2023-06-27T14:18:46.197Z,2.30
2023-06-27T14:21:14.028Z,3.05
2023-06-27T14:23:41.505Z,4.20
2023-06-27T14:26:09.375Z,2.65
2023-06-27T14:28:36.522Z,1.73
2023-06-27T14:31:03.757Z,4.50
2023-06-27T14:33:32.282Z,2.10
2023-06-27T14:36:00.042Z,2.33
2023-06-27T14:38:27.205Z,2.72
2023-06-27T14:40:54.373Z,2.60
2023-06-27T14:43:21.501Z,4.55
2023-06-27T14:45:48.809Z,2.03
2023-06-27T14:48:16.002Z,3.22
2023-06-27T14:50:44.713Z,2.83
2023-06-27T14:53:12.020Z,1.80
2023-06-27T14:55:39.254Z,3.38
2023-06-27T14:58:06.421Z,3.85
2023-06-27T15:00:33.604Z,4.03
2023-06-27T15:03:00.867Z,1.90
2023-06-27T15:05:28.154Z,4.32
2023-06-27T15:07:56.686Z,11.82
2023-06-27T15:10:24.284Z,4.80
2023-06-27T15:12:51.435Z,6.10
2023-06-27T15:15:18.680Z,3.20
2023-06-27T15:17:45.853Z,2.47
2023-06-27T15:20:13.333Z,2.10
2023-06-27T15:22:40.537Z,3.35
2023-06-27T15:25:09.753Z,1.90
2023-06-27T15:27:36.886Z,3.92
2023-06-27T15:30:04.640Z,2.53
2023-06-27T15:32:31.851Z,4.90
2023-06-27T15:34:59.021Z,5.63
2023-06-27T15:37:26.162Z,4.20
2023-06-27T15:39:53.354Z,4.22
2023-06-27T15:42:22.560Z,8.20
2023-06-27T15:44:49.844Z,19.63
2023-06-27T15:47:17.149Z,17.80
2023-06-27T15:49:47.147Z,8.30
2023-06-27T15:52:14.545Z,7.82
2023-06-27T15:54:41.718Z,5.85
2023-06-27T15:57:08.895Z,5.40
2023-06-27T15:59:37.392Z,7.03
2023-06-27T16:02:05.103Z,3.00
2023-06-27T16:04:32.305Z,6.45
2023-06-27T16:06:59.566Z,5.50
2023-06-27T16:09:26.747Z,5.28
2023-06-27T16:11:54.085Z,4.05
2023-06-27T16:14:21.238Z,514.85
2023-06-27T16:16:50.280Z,586.40
2023-06-27T16:19:17.426Z,715.10
2023-06-27T16:21:44.623Z,404.08
2023-06-27T16:24:11.790Z,333.23
2023-06-27T16:26:38.947Z,301.15
2023-06-27T16:29:06.218Z,269.08
2023-06-27T16:31:33.431Z,216.90
2023-06-27T16:34:01.998Z,152.45
2023-06-27T16:36:29.164Z,171.38
2023-06-27T16:38:56.441Z,150.02
2023-06-27T16:41:23.734Z,124.88
2023-06-27T16:43:50.863Z,121.32
2023-06-27T16:46:19.713Z,95.40
2023-06-27T16:48:49.900Z,107.22
2023-06-27T16:51:19.086Z,108.63
2023-06-27T16:53:46.258Z,87.63
2023-06-27T16:56:13.468Z,94.68
2023-06-27T16:58:40.608Z,90.38
2023-06-27T17:01:07.758Z,64.82
2023-06-27T17:03:35.041Z,62.90
2023-06-27T17:06:02.415Z,61.83
2023-06-27T17:08:30.951Z,54.85
2023-06-27T17:10:58.110Z,49.50
2023-06-27T17:13:25.282Z,47.97
2023-06-27T17:15:52.433Z,44.78
2023-06-27T17:18:19.678Z,40.92
2023-06-27T17:20:47.037Z,41.92
2023-06-27T17:23:14.210Z,35.35
2023-06-27T17:25:43.072Z,33.33
2023-06-27T17:28:10.422Z,36.08
2023-06-27T17:30:37.692Z,29.45
2023-06-27T17:33:04.911Z,23.75
2023-06-27T17:35:32.101Z,19.48
2023-06-27T17:37:59.222Z,17.10
2023-06-27T17:40:26.576Z,12.15
2023-06-27T17:42:55.155Z,25.98
2023-06-27T17:45:23.652Z,14.48
2023-06-27T17:47:50.860Z,13.68
2023-06-27T17:50:18.027Z,15.30
2023-06-27T17:52:45.181Z,16.13
2023-06-27T17:55:12.508Z,10.40
2023-06-27T17:57:39.774Z,15.70
2023-06-27T18:00:09.852Z,15.05
2023-06-27T18:02:37.260Z,13.40
2023-06-27T18:05:05.136Z,13.57
2023-06-27T18:07:37.991Z,10.90
2023-06-27T18:10:07.670Z,15.38
2023-06-27T18:12:34.896Z,14.25
2023-06-27T18:15:04.694Z,13.27
2023-06-27T18:17:33.268Z,13.02
2023-06-27T18:20:00.437Z,11.40
2023-06-27T18:22:27.580Z,12.82
2023-06-27T18:24:54.781Z,12.75
2023-06-27T18:27:22.048Z,10.55
2023-06-27T18:29:49.410Z,10.65
2023-06-27T18:32:17.133Z,10.80
2023-06-27T18:34:45.656Z,9.15
2023-06-27T18:37:12.807Z,11.07
2023-06-27T18:39:39.995Z,11.70
2023-06-27T18:42:07.592Z,11.82
2023-06-27T18:44:34.750Z,10.82
2023-06-27T18:47:01.916Z,10.48
2023-06-27T18:49:30.102Z,11.52
2023-06-27T18:51:58.644Z,11.63
2023-06-27T18:54:25.895Z,10.77
2023-06-27T18:56:53.174Z,10.90
2023-06-27T18:59:20.302Z,10.77
2023-06-27T19:01:47.564Z,9.45
2023-06-27T19:04:14.957Z,8.38
2023-06-27T19:06:42.564Z,10.52
2023-06-27T19:09:11.156Z,9.30
2023-06-27T19:11:38.289Z,7.90
2023-06-27T19:14:10.385Z,8.55
2023-06-27T19:16:40.654Z,7.85
2023-06-27T19:19:08.567Z,9.95
2023-06-27T19:21:36.208Z,9.55
2023-06-27T19:24:03.805Z,9.30
2023-06-27T19:26:32.729Z,9.38
2023-06-27T19:28:59.866Z,7.78
2023-06-27T19:31:27.089Z,9.88
2023-06-27T19:33:54.466Z,6.90
2023-06-27T19:36:21.846Z,8.70
2023-06-27T19:38:49.658Z,7.78
2023-06-27T19:41:16.778Z,9.05
2023-06-27T19:43:45.271Z,10.93
2023-06-27T19:46:12.442Z,7.80
2023-06-27T19:48:39.572Z,8.45
2023-06-27T19:51:06.703Z,8.52
2023-06-27T19:53:33.849Z,7.68
2023-06-27T19:56:00.965Z,7.38
2023-06-27T19:58:28.066Z,9.52
2023-06-27T20:00:56.534Z,8.02
2023-06-27T20:03:23.861Z,6.43
2023-06-27T20:05:51.144Z,6.72
2023-06-27T20:08:19.722Z,8.90
2023-06-27T20:10:47.055Z,10.32
2023-06-27T20:13:14.370Z,11.20
2023-06-27T20:15:41.629Z,8.65
2023-06-27T20:18:11.318Z,9.50
2023-06-27T20:20:39.197Z,6.80
2023-06-27T20:23:06.490Z,9.30
2023-06-27T20:25:33.594Z,6.85
2023-06-27T20:28:00.692Z,8.05
2023-06-27T20:30:27.823Z,6.30
2023-06-27T20:32:54.990Z,9.57
2023-06-27T20:35:23.662Z,8.50
2023-06-27T20:37:50.992Z,6.55
2023-06-27T20:40:18.261Z,7.78
2023-06-27T20:42:45.428Z,9.68
2023-06-27T20:45:12.624Z,7.03
2023-06-27T20:47:39.793Z,7.18
2023-06-27T20:50:08.773Z,8.05
2023-06-27T20:52:37.294Z,7.57
2023-06-27T20:55:05.000Z,9.10
2023-06-27T20:57:32.147Z,7.53
2023-06-27T20:59:59.317Z,9.65
2023-06-27T21:02:26.549Z,6.65
2023-06-27T21:04:54.525Z,6.45
2023-06-27T21:07:21.728Z,6.95
2023-06-27T21:09:50.276Z,7.40
2023-06-27T21:12:18.117Z,8.05
2023-06-27T21:14:46.259Z,6.43
2023-06-27T21:17:15.305Z,8.23
2023-06-27T21:19:42.454Z,7.78
2023-06-27T21:22:09.677Z,9.05
2023-06-27T21:24:36.780Z,6.72
2023-06-27T21:27:06.143Z,7.28
2023-06-27T21:29:33.391Z,8.02
2023-06-27T21:32:00.558Z,8.27
2023-06-27T21:34:27.754Z,8.68
2023-06-27T21:36:54.905Z,5.38
2023-06-27T21:39:22.008Z,5.88
2023-06-27T21:41:49.143Z,19.58
2023-06-27T21:44:17.793Z,7.95
2023-06-27T21:46:44.918Z,5.57
2023-06-27T21:49:12.045Z,6.22
2023-06-27T21:51:39.193Z,7.55
2023-06-27T21:54:06.377Z,10.90
2023-06-27T21:56:33.498Z,13.32
2023-06-27T21:59:00.661Z,13.65
2023-06-27T22:01:29.205Z,8.52
2023-06-27T22:03:56.472Z,6.63
2023-06-27T22:06:34.101Z,5.90
2023-06-27T22:09:09.586Z,9.32
2023-06-27T22:11:36.773Z,11.73
2023-06-27T22:14:03.996Z,11.65
2023-06-27T22:16:32.489Z,8.30
2023-06-27T22:18:59.880Z,9.18
2023-06-27T22:21:27.024Z,7.32
2023-06-27T22:23:54.372Z,16.80
2023-06-27T22:26:21.616Z,10.52
2023-06-27T22:28:48.803Z,10.40
2023-06-27T22:31:17.101Z,11.30
2023-06-27T22:33:45.638Z,12.10
2023-06-27T22:36:12.812Z,14.07
2023-06-27T22:38:39.973Z,10.73
2023-06-27T22:41:07.119Z,11.38
2023-06-27T22:43:34.224Z,12.45
2023-06-27T22:46:01.333Z,14.50
2023-06-27T22:48:28.660Z,6.88
2023-06-27T22:50:57.140Z,7.32
2023-06-27T22:53:24.298Z,11.82
2023-06-27T22:55:51.689Z,9.65
2023-06-27T22:58:18.809Z,8.68
2023-06-27T23:00:46.046Z,10.23
2023-06-27T23:20:32.763Z,9.18
2023-06-27T23:22:59.914Z,8.07
2023-06-27T23:25:27.339Z,9.40
2023-06-27T23:27:54.535Z,8.30
2023-06-27T23:30:21.668Z,7.38
2023-06-27T23:32:52.412Z,11.10
2023-06-27T23:35:19.614Z,8.60
2023-06-27T23:37:48.178Z,7.30
2023-06-27T23:40:15.351Z,8.43
2023-06-27T23:42:42.539Z,6.80
2023-06-27T23:45:10.382Z,7.35
2023-06-27T23:47:37.558Z,7.22
2023-06-27T23:50:06.073Z,7.90
2023-06-27T23:52:33.250Z,7.97
2023-06-27T23:55:01.772Z,8.20
2023-06-27T23:57:28.941Z,7.13
2023-06-27T23:59:56.107Z,7.93
